Time;durP1;ratioP1;P1;durP2;ratioP2;P2;SDS_P1;SDS_P2;PMS_P1;PMS_P2;Temp;Humidity;BMP_temperature;BMP_pressure;BME280_temperature;BME280_humidity;BME280_pressure;Samples;Min_cycle;Max_cycle;Signal;HPM_P1;HPM_P2
2021/12/19 00:01:53;;;;;;;16.03;8.50;;;2.70;99.90;;;1.08;100.00;99540.91;5088678;28;20487;-73
2021/12/19 00:04:27;;;;;;;15.17;8.80;;;2.60;99.90;;;1.26;100.00;99543.13;5106692;28;20454;-71
2021/12/19 00:09:41;;;;;;;12.53;8.00;;;2.70;99.90;;;1.39;100.00;99532.41;5091394;28;20488;-71
2021/12/19 00:12:08;;;;;;;12.43;6.77;;;2.80;99.90;;;1.30;100.00;99533.97;5087530;28;20619;-71
2021/12/19 00:14:35;;;;;;;9.20;6.40;;;2.80;99.90;;;1.35;99.65;99526.47;5092345;28;20547;-71
2021/12/19 00:17:02;;;;;;;11.37;6.30;;;2.80;99.90;;;1.32;99.46;99520.50;5104215;28;20507;-71
2021/12/19 00:19:29;;;;;;;9.27;5.30;;;2.80;99.90;;;1.37;98.77;99518.34;5089980;28;20459;-71
2021/12/19 00:21:56;;;;;;;9.23;5.57;;;2.80;99.90;;;1.33;99.41;99515.06;5089456;28;20582;-71
2021/12/19 00:24:24;;;;;;;9.40;5.53;;;2.80;99.90;;;1.39;99.01;99511.09;5091166;28;20454;-70
2021/12/19 00:26:53;;;;;;;9.57;5.63;;;2.90;99.60;;;1.37;98.88;99513.88;5090493;28;20448;-71
2021/12/19 00:29:21;;;;;;;11.80;6.63;;;2.80;99.80;;;1.35;98.63;99496.31;5093491;28;20547;-71
2021/12/19 00:31:48;;;;;;;10.50;6.80;;;2.90;99.30;;;1.29;99.32;99495.00;5087885;28;20480;-71
2021/12/19 00:34:17;;;;;;;9.50;6.50;;;2.80;99.90;;;1.17;99.82;99499.44;5087802;28;20532;-71
2021/12/19 00:36:45;;;;;;;10.73;6.43;;;2.80;99.90;;;1.17;99.66;99495.94;5086445;28;20561;-71
2021/12/19 00:39:13;;;;;;;9.93;5.60;;;2.70;99.90;;;1.13;99.74;99485.50;5086199;28;20484;-71
2021/12/19 00:41:40;;;;;;;10.93;6.80;;;2.70;99.90;;;1.19;99.45;99488.66;5090673;28;20538;-70
2021/12/19 00:44:10;;;;;;;11.10;5.80;;;2.70;99.90;;;1.23;99.84;99492.78;5102489;27;20533;-72
2021/12/19 00:46:49;;;;;;;12.00;6.43;;;2.70;99.90;;;1.18;99.48;99486.97;5086148;28;20689;-69
2021/12/19 00:49:18;;;;;;;11.20;6.23;;;2.80;99.90;;;1.32;99.33;99494.75;5089146;28;21196;-72
2021/12/19 00:51:46;;;;;;;8.80;6.40;;;2.80;99.90;;;1.24;99.76;99497.16;5083725;28;20556;-72
2021/12/19 00:54:14;;;;;;;12.57;7.07;;;2.80;99.90;;;1.27;99.73;99487.09;5092754;28;20495;-72
2021/12/19 00:56:45;;;;;;;10.10;6.37;;;2.80;99.90;;;1.35;98.83;99486.50;5089896;28;20881;-72
2021/12/19 00:59:14;;;;;;;13.07;7.80;;;2.80;99.60;;;1.33;99.53;99480.47;5092195;28;20460;-72
2021/12/19 01:01:41;;;;;;;13.60;6.30;;;2.80;99.90;;;1.22;99.71;99488.44;5090890;28;20460;-72
2021/12/19 01:04:12;;;;;;;12.00;7.43;;;2.80;99.90;;;1.39;100.00;99498.59;5085168;28;20538;-72
2021/12/19 01:06:40;;;;;;;11.00;7.00;;;2.80;99.90;;;1.38;99.22;99504.06;5093996;28;20463;-71
2021/12/19 01:09:07;;;;;;;11.30;6.67;;;2.90;99.90;;;1.38;99.73;99504.06;5087320;28;20539;-71
2021/12/19 01:11:35;;;;;;;10.97;7.60;;;2.80;99.90;;;1.22;99.71;99505.25;5104913;27;20504;-70
2021/12/19 01:14:04;;;;;;;14.23;7.90;;;2.70;99.90;;;1.24;99.90;99481.16;5087049;28;20553;-72
2021/12/19 01:16:32;;;;;;;12.00;7.10;;;2.80;99.90;;;1.22;100.00;99494.63;5087246;28;20893;-71
2021/12/19 01:19:00;;;;;;;11.67;7.47;;;2.70;99.90;;;1.33;99.83;99477.78;5097824;28;20875;-70
2021/12/19 01:21:27;;;;;;;9.30;6.47;;;2.80;99.90;;;1.41;99.23;99482.53;5114605;28;20483;-70
2021/12/19 01:23:54;;;;;;;11.60;7.67;;;2.90;99.90;;;1.40;99.38;99481.66;5094500;28;20555;-70
2021/12/19 01:26:21;;;;;;;10.57;6.90;;;2.90;99.90;;;1.50;98.83;99480.94;5087654;28;20515;-71
2021/12/19 01:28:48;;;;;;;10.20;6.57;;;2.90;99.90;;;1.55;98.70;99481.41;5089391;28;20488;-71
2021/12/19 01:31:15;;;;;;;11.17;7.43;;;3.00;99.90;;;1.51;99.28;99471.97;5087749;28;20468;-71
2021/12/19 01:33:44;;;;;;;12.67;8.13;;;2.90;99.90;;;1.40;98.72;99471.00;5094005;28;20544;-71
2021/12/19 01:36:11;;;;;;;11.37;6.87;;;3.00;99.90;;;1.50;99.27;99475.63;5095946;28;20538;-70
2021/12/19 01:38:38;;;;;;;11.83;7.57;;;3.00;99.90;;;1.57;98.92;99479.47;5091304;28;20494;-70
2021/12/19 01:41:05;;;;;;;9.97;6.63;;;3.00;99.90;;;1.33;99.01;99480.47;5088015;28;20452;-71
2021/12/19 01:43:32;;;;;;;13.30;7.97;;;2.80;99.20;;;1.18;99.09;99481.66;5086304;28;20549;-71
2021/12/19 01:46:00;;;;;;;11.50;7.03;;;2.80;98.90;;;1.31;99.86;99490.38;5089310;28;20627;-71
2021/12/19 01:48:27;;;;;;;11.97;7.23;;;2.80;99.90;;;1.24;100.00;99476.69;5095065;28;20994;-71
2021/12/19 01:50:56;;;;;;;11.97;7.37;;;2.80;99.90;;;1.23;100.00;99474.16;5085691;28;20460;-70
2021/12/19 01:53:23;;;;;;;14.07;8.77;;;2.70;99.90;;;1.53;99.43;99475.38;5100807;28;20553;-71
2021/12/19 01:55:51;;;;;;;10.63;7.50;;;2.90;99.90;;;1.63;98.37;99481.66;5094741;28;20451;-71
2021/12/19 01:58:18;;;;;;;10.87;7.50;;;3.00;99.90;;;1.54;98.45;99469.06;5083917;28;20524;-70
2021/12/19 02:00:49;;;;;;;9.80;7.70;;;3.00;98.70;;;1.64;98.70;99470.03;5089546;28;20478;-69
2021/12/19 02:03:17;;;;;;;11.50;6.83;;;3.10;99.40;;;1.66;98.75;99454.78;5088343;28;20508;-70
2021/12/19 02:05:46;;;;;;;10.07;7.60;;;3.10;99.70;;;1.57;99.02;99460.81;5096447;28;20854;-70
2021/12/19 02:08:16;;;;;;;11.93;7.77;;;3.10;99.80;;;1.55;99.08;99446.78;5092971;28;20515;-70
2021/12/19 02:10:43;;;;;;;10.83;6.70;;;3.10;99.90;;;1.63;98.75;99431.03;5092273;28;20468;-70
2021/12/19 02:13:13;;;;;;;10.90;6.57;;;3.10;99.90;;;1.71;98.34;99446.41;5092688;28;20887;-71
2021/12/19 02:15:43;;;;;;;9.17;7.50;;;3.20;98.40;;;1.72;97.85;99448.09;5090740;28;20456;-71
2021/12/19 02:18:13;;;;;;;11.87;6.40;;;3.20;98.20;;;1.67;98.32;99439.66;5105926;27;20905;-70
2021/12/19 02:20:44;;;;;;;10.77;7.23;;;3.10;98.10;;;1.63;98.63;99433.72;5090386;28;20482;-70
2021/12/19 02:23:12;;;;;;;10.13;7.70;;;3.10;98.70;;;1.67;98.40;99440.47;5099602;28;20547;-70
2021/12/19 02:25:40;;;;;;;11.97;6.90;;;3.10;99.10;;;1.53;99.39;99438.06;5089760;28;20452;-71
2021/12/19 02:28:08;;;;;;;11.27;7.50;;;3.00;99.90;;;1.63;98.76;99439.03;5091973;28;20516;-70
2021/12/19 02:30:36;;;;;;;9.30;6.20;;;3.10;99.90;;;1.50;99.51;99427.66;5088967;28;20489;-69
2021/12/19 02:33:03;;;;;;;10.57;7.30;;;3.00;99.90;;;1.62;99.25;99426.69;5093773;28;20487;-71
2021/12/19 02:35:33;;;;;;;10.60;7.07;;;3.10;99.90;;;1.53;99.38;99419.41;5094689;28;20471;-70
2021/12/19 02:49:06;;;;;;;10.07;6.20;;;3.30;99.80;;;1.64;99.73;99421.22;5103851;28;20450;-71
2021/12/19 02:51:34;;;;;;;8.63;5.87;;;3.20;99.90;;;1.76;99.78;99416.75;5092485;28;20529;-72
2021/12/19 02:54:05;;;;;;;10.70;6.43;;;3.20;99.90;;;1.75;99.78;99431.03;5081917;28;20480;-70
2021/12/19 02:56:32;;;;;;;7.57;5.90;;;3.20;99.90;;;1.79;99.73;99405.81;5094385;28;20491;-72
2021/12/19 02:58:59;;;;;;;8.50;5.97;;;3.20;99.90;;;1.85;99.25;99405.31;5090362;28;20543;-70
2021/12/19 03:01:27;;;;;;;7.77;5.83;;;3.30;99.90;;;1.82;99.10;99402.91;5105893;27;20452;-70
2021/12/19 03:03:55;;;;;;;9.83;6.00;;;3.30;99.90;;;1.78;99.74;99404.13;5085033;28;20468;-71
2021/12/19 03:06:22;;;;;;;7.87;5.60;;;3.30;99.90;;;1.88;99.28;99399.72;5094872;28;20512;-75
2021/12/19 03:08:51;;;;;;;8.47;5.80;;;3.30;99.90;;;1.68;99.30;99353.41;5091323;28;20480;-69
2021/12/19 03:19:31;;;;;;;8.37;5.20;;;3.30;99.90;;;1.91;100.00;99377.31;5057774;28;21242;-70
2021/12/19 03:21:58;;;;;;;9.70;5.47;;;3.30;99.90;;;1.84;100.00;99377.81;5090786;28;21301;-69
2021/12/19 03:24:25;;;;;;;8.17;5.73;;;3.30;99.90;;;1.92;100.00;99376.34;5089274;28;20488;-68
2021/12/19 03:26:54;;;;;;;7.27;5.53;;;3.40;99.90;;;1.82;99.94;99368.25;5085576;28;20518;-69
2021/12/19 03:29:21;;;;;;;7.10;5.10;;;3.40;99.90;;;1.84;100.00;99369.81;5087517;28;20440;-69
2021/12/19 03:31:48;;;;;;;11.27;6.30;;;3.40;99.90;;;1.79;100.00;99373.84;5101837;28;20478;-70
2021/12/19 03:34:15;;;;;;;8.73;4.80;;;3.30;99.90;;;1.91;100.00;99366.66;5100154;27;20504;-70
2021/12/19 03:36:42;;;;;;;6.30;5.17;;;3.30;99.90;;;1.77;100.00;99365.13;5104950;27;20570;-70
2021/12/19 03:39:25;;;;;;;9.80;5.70;;;3.30;99.90;;;1.82;100.00;99365.59;5089021;28;20456;-71
2021/12/19 03:41:56;;;;;;;9.90;6.30;;;3.30;99.90;;;1.77;100.00;99359.81;5084828;28;20460;-70
2021/12/19 03:44:24;;;;;;;8.83;5.50;;;3.30;99.90;;;1.73;100.00;99356.53;5103979;27;20456;-70
2021/12/19 03:46:52;;;;;;;7.60;6.10;;;3.30;99.90;;;1.79;100.00;99355.19;5088052;28;20499;-70
2021/12/19 03:49:19;;;;;;;9.30;5.83;;;3.30;99.90;;;1.80;100.00;99354.22;5090609;28;20479;-69
2021/12/19 03:51:48;;;;;;;8.40;5.83;;;3.30;99.90;;;1.80;100.00;99352.38;5092653;28;20558;-70
2021/12/19 03:54:16;;;;;;;7.00;5.20;;;3.30;99.90;;;1.69;100.00;99336.44;5083343;28;20521;-70
2021/12/19 03:56:42;;;;;;;7.90;5.60;;;3.20;99.90;;;1.82;100.00;99346.94;5092660;28;20460;-69
2021/12/19 03:59:11;;;;;;;7.80;6.20;;;3.30;99.90;;;1.81;100.00;99355.91;5092312;28;20501;-69
2021/12/19 04:01:39;;;;;;;10.20;6.27;;;3.30;99.90;;;1.73;100.00;99350.34;5087782;28;20467;-73
2021/12/19 04:04:06;;;;;;;8.07;5.90;;;3.20;99.90;;;1.70;100.00;99348.78;5109448;27;20509;-72
2021/12/19 04:06:33;;;;;;;12.23;7.50;;;3.30;99.90;;;1.70;100.00;99344.28;5091978;28;20498;-71
2021/12/19 04:09:00;;;;;;;11.27;7.13;;;3.20;99.90;;;1.85;100.00;99346.66;5093897;28;20796;-71
2021/12/19 04:11:30;;;;;;;11.30;7.37;;;3.30;99.90;;;1.86;100.00;99342.19;5088974;28;20634;-71
2021/12/19 04:13:57;;;;;;;10.50;7.33;;;3.30;99.90;;;1.78;100.00;99337.50;5097488;28;20464;-71
2021/12/19 04:16:25;;;;;;;9.70;7.00;;;3.30;99.90;;;1.88;100.00;99332.25;5095768;28;20460;-70
2021/12/19 04:18:52;;;;;;;8.60;5.80;;;3.30;99.90;;;1.86;100.00;99321.69;5095464;28;20484;-71
2021/12/19 04:21:19;;;;;;;11.73;7.67;;;3.30;99.90;;;1.80;100.00;99327.56;5092664;28;20476;-70
2021/12/19 04:23:46;;;;;;;10.57;7.20;;;3.30;99.90;;;1.76;100.00;99315.47;5089882;28;20857;-69
2021/12/19 04:26:13;;;;;;;10.83;7.57;;;3.30;99.90;;;1.55;100.00;99309.09;5089720;28;21038;-71
2021/12/19 04:28:41;;;;;;;11.10;6.73;;;3.20;99.90;;;1.64;100.00;99318.16;5096649;28;20439;-71
2021/12/19 04:31:08;;;;;;;11.67;7.20;;;3.10;99.90;;;1.68;100.00;99324.94;5091684;28;20554;-71
2021/12/19 04:33:39;;;;;;;9.03;7.00;;;3.20;99.90;;;1.73;100.00;99321.03;5095693;28;20569;-71
2021/12/19 04:36:08;;;;;;;9.83;7.10;;;3.20;99.90;;;1.66;100.00;99315.34;5093919;28;20449;-70
2021/12/19 04:44:44;;;;;;;9.10;6.63;;;3.20;99.90;;;1.61;100.00;99313.09;5088719;28;20452;-70
2021/12/19 05:01:34;;;;;;;9.77;6.67;;;3.20;99.90;;;1.65;100.00;99311.84;5038791;28;21080;-71
2021/12/19 05:04:12;;;;;;;8.33;5.70;;;3.20;99.90;;;1.59;100.00;99306.19;5088863;28;20453;-71
2021/12/19 05:14:02;;;;;;;8.73;6.37;;;3.20;99.90;;;1.59;100.00;99304.34;5103877;28;20895;-70
2021/12/19 05:15:10;;;;;;;11.60;6.80;;;3.20;99.90;;;1.64;100.00;99302.19;5086538;28;20459;-70
2021/12/19 05:17:37;;;;;;;7.53;5.87;;;3.20;99.90;;;1.74;100.00;99296.06;5089566;28;20451;-70
2021/12/19 05:20:13;;;;;;;8.00;6.53;;;3.20;99.90;;;1.73;99.96;99294.38;5086969;28;21003;-71
2021/12/19 05:22:47;;;;;;;7.70;6.20;;;3.20;99.90;;;1.72;99.80;99298.88;5091595;28;20466;-71
2021/12/19 05:25:15;;;;;;;7.63;5.90;;;3.20;99.90;;;1.56;100.00;99293.97;5089224;28;21013;-71
2021/12/19 05:27:44;;;;;;;7.93;6.70;;;3.10;99.90;;;1.62;100.00;99285.47;5085068;28;20513;-71
2021/12/19 05:30:14;;;;;;;9.20;6.73;;;3.10;99.90;;;1.63;100.00;99284.50;5091434;28;20537;-71
2021/12/19 05:32:42;;;;;;;6.53;5.70;;;3.10;99.90;;;1.61;99.01;99270.47;5090664;28;21188;-70
2021/12/19 05:35:12;;;;;;;7.73;5.23;;;3.20;98.80;;;1.58;99.20;99286.69;5092889;28;21143;-70
2021/12/19 05:45:56;;;;;;;8.10;6.93;;;3.10;99.90;;;1.56;100.00;99296.63;5088386;28;20530;-71
2021/12/19 05:48:23;;;;;;;9.87;7.50;;;3.10;99.90;;;1.62;100.00;99292.59;5089380;28;20934;-72
2021/12/19 05:50:50;;;;;;;9.13;7.30;;;3.10;99.90;;;1.51;100.00;99280.19;5094455;28;20479;-71
2021/12/19 05:53:18;;;;;;;8.43;7.40;;;3.10;99.90;;;1.56;99.75;99299.28;5092953;28;20456;-70
2021/12/19 05:55:45;;;;;;;8.57;6.63;;;3.10;99.90;;;1.53;100.00;99295.06;5104821;28;20533;-71
2021/12/19 05:58:12;;;;;;;9.97;7.50;;;3.10;99.90;;;1.55;100.00;99286.94;5087216;28;20547;-71
2021/12/19 06:00:39;;;;;;;8.63;7.40;;;3.10;99.90;;;1.50;100.00;99275.81;5085686;28;20531;-71
2021/12/19 06:03:06;;;;;;;8.80;6.77;;;3.10;99.90;;;1.64;99.29;99290.66;5083652;28;20509;-72
2021/12/19 06:05:33;;;;;;;10.43;8.00;;;3.10;99.80;;;1.66;99.79;99284.25;5090401;28;20475;-71
2021/12/19 06:08:00;;;;;;;13.70;9.47;;;3.10;99.90;;;1.69;99.79;99273.31;5085981;28;20943;-69
2021/12/19 06:10:29;;;;;;;10.50;8.07;;;3.20;99.90;;;1.79;99.72;99277.91;5090153;28;20557;-70
2021/12/19 06:12:59;;;;;;;10.00;7.30;;;3.20;99.90;;;1.79;99.63;99269.91;5091436;28;20575;-70
2021/12/19 06:15:26;;;;;;;9.10;7.43;;;3.30;99.90;;;1.74;99.40;99258.75;5087952;28;20455;-69
2021/12/19 06:17:53;;;;;;;9.80;7.37;;;3.20;99.90;;;1.75;99.43;99263.97;5087776;28;20436;-69
2021/12/19 06:20:25;;;;;;;10.00;8.17;;;3.30;99.90;;;1.82;99.13;99270.50;5084865;28;20460;-68
2021/12/19 06:22:53;;;;;;;11.03;7.80;;;3.30;99.80;;;1.53;98.91;99212.50;5076292;28;20464;-78
2021/12/19 06:25:20;;;;;;;8.83;7.37;;;3.30;99.90;;;1.80;99.19;99274.25;5090522;28;20463;-80
2021/12/19 06:27:49;;;;;;;8.73;7.30;;;3.30;99.80;;;1.70;99.30;99253.69;5090006;28;20452;-81
2021/12/19 06:30:18;;;;;;;10.30;8.20;;;3.30;99.90;;;1.76;99.19;99267.50;5075797;28;21036;-79
2021/12/19 06:32:45;;;;;;;9.27;8.17;;;3.20;99.90;;;1.90;98.63;99264.53;5084216;28;20526;-72
2021/12/19 06:35:18;;;;;;;9.20;7.23;;;3.40;99.30;;;2.02;98.15;99267.09;5084643;28;20559;-73
2021/12/19 06:37:47;;;;;;;10.33;9.23;;;3.50;97.50;;;2.01;97.52;99254.75;5085750;28;20571;-71
2021/12/19 06:40:18;;;;;;;8.80;7.60;;;3.50;96.40;;;2.03;98.51;99259.00;5087272;28;20458;-72
2021/12/19 06:42:46;;;;;;;8.70;7.77;;;3.50;97.30;;;1.95;98.27;99256.97;5096915;28;20530;-72
2021/12/19 06:45:15;;;;;;;7.60;6.80;;;3.50;97.00;;;1.90;97.72;99261.84;5106661;27;20448;-73
2021/12/19 06:47:42;;;;;;;9.73;8.23;;;3.50;96.40;;;1.96;98.56;99264.00;5087586;28;20436;-71
2021/12/19 06:50:12;;;;;;;8.50;7.43;;;3.40;98.00;;;2.00;97.22;99258.41;5094563;28;20453;-72
2021/12/19 06:52:41;;;;;;;9.30;7.53;;;3.50;95.70;;;1.87;97.84;99254.09;5091769;28;20790;-81
2021/12/19 06:55:10;;;;;;;10.30;8.07;;;3.40;96.00;;;1.83;97.26;99250.88;5102089;28;20460;-75
2021/12/19 06:57:38;;;;;;;9.60;7.40;;;3.40;95.20;;;1.64;97.72;99243.56;5092483;28;20509;-69
2021/12/19 07:00:08;;;;;;;9.67;8.23;;;3.30;95.60;;;1.77;98.39;99253.19;5082281;28;20533;-69
2021/12/19 07:02:36;;;;;;;10.43;7.83;;;3.30;97.00;;;1.70;97.82;99252.88;5099467;28;20486;-69
2021/12/19 07:05:05;;;;;;;10.00;8.40;;;3.30;96.20;;;1.76;98.20;99254.19;5086457;28;20484;-69
2021/12/19 07:07:32;;;;;;;11.13;8.73;;;3.30;97.20;;;1.80;98.37;99256.44;5089454;28;20543;-69
2021/12/19 07:09:59;;;;;;;9.13;7.77;;;3.30;97.30;;;1.78;97.75;99260.22;5092246;28;20496;-69
2021/12/19 07:12:27;;;;;;;10.50;8.40;;;3.30;96.20;;;1.88;97.78;99266.44;5081097;28;20472;-69
2021/12/19 07:14:54;;;;;;;11.20;8.47;;;3.40;96.80;;;1.78;96.79;99270.88;5089261;28;20558;-70
2021/12/19 07:17:21;;;;;;;7.90;7.10;;;3.30;95.40;;;1.77;96.63;99263.84;5082141;28;20982;-70
2021/12/19 07:19:50;;;;;;;9.47;7.63;;;3.30;94.10;;;1.84;97.50;99265.03;5084088;28;20467;-69
2021/12/19 07:22:18;;;;;;;9.40;7.70;;;3.40;96.00;;;1.76;96.20;99256.84;5077151;28;20888;-70
2021/12/19 07:24:45;;;;;;;10.03;9.00;;;3.30;93.40;;;1.75;96.11;99255.16;5081279;28;20492;-69
2021/12/19 07:27:12;;;;;;;10.27;8.77;;;3.30;93.20;;;1.76;96.13;99256.84;5084148;28;20494;-69
2021/12/19 07:29:39;;;;;;;9.83;8.70;;;3.30;94.00;;;1.75;95.51;99255.97;5086607;28;20469;-69
2021/12/19 07:32:07;;;;;;;10.23;8.27;;;3.30;93.10;;;1.69;95.98;99252.00;5088041;28;20499;-69
2021/12/19 07:34:37;;;;;;;8.90;8.00;;;3.30;93.60;;;1.70;96.03;99245.69;5085169;28;20461;-69
2021/12/19 07:37:05;;;;;;;10.17;8.93;;;3.30;93.90;;;1.80;96.48;99242.28;5109275;27;20486;-69
2021/12/19 07:39:41;;;;;;;10.30;9.00;;;3.30;94.70;;;1.88;96.19;99236.28;5087836;28;20464;-69
2021/12/19 07:42:11;;;;;;;11.43;9.03;;;3.40;95.00;;;2.12;95.67;99238.69;5096611;28;20454;-70
2021/12/19 07:44:40;;;;;;;10.47;9.30;;;3.50;94.70;;;1.96;94.66;99220.47;5087714;28;20468;-68
2021/12/19 07:47:07;;;;;;;11.43;9.70;;;3.60;92.70;;;2.02;95.72;99235.13;5086661;28;20579;-65
2021/12/19 07:49:35;;;;;;;11.03;9.53;;;3.50;93.20;;;2.11;95.26;99229.84;5084145;28;20538;-68
2021/12/19 07:52:02;;;;;;;10.90;9.27;;;3.60;93.20;;;2.00;94.84;99243.25;5108500;27;20460;-73
2021/12/19 07:54:31;;;;;;;10.50;8.83;;;3.50;92.70;;;2.01;95.79;99223.63;5087636;28;20480;-72
2021/12/19 07:56:58;;;;;;;9.97;8.90;;;3.50;93.30;;;2.06;95.28;99210.72;5086121;28;20461;-71
2021/12/19 07:59:25;;;;;;;11.40;10.00;;;3.60;93.40;;;2.04;95.71;99211.81;5091838;28;20516;-74
2021/12/19 08:01:52;;;;;;;10.70;8.37;;;3.50;93.40;;;2.12;94.64;99209.38;5094860;28;20508;-74
2021/12/19 08:04:19;;;;;;;12.80;10.50;;;3.60;92.50;;;2.08;94.49;99213.28;5089343;28;20480;-73
2021/12/19 08:06:46;;;;;;;11.20;10.10;;;3.60;92.50;;;2.13;94.93;99213.72;5084470;28;20476;-73
2021/12/19 08:09:22;;;;;;;13.13;10.43;;;3.60;92.60;;;2.07;94.82;99204.41;5096936;28;20472;-74
2021/12/19 08:11:51;;;;;;;11.57;9.23;;;3.60;93.00;;;2.17;94.61;99212.47;5090587;28;20467;-73
2021/12/19 08:14:18;;;;;;;12.77;10.50;;;3.70;92.50;;;2.22;95.20;99212.06;5088874;28;20454;-74
2021/12/19 08:16:48;;;;;;;12.63;10.40;;;3.70;92.90;;;2.18;94.61;99198.16;5106173;27;20540;-73
2021/12/19 08:19:15;;;;;;;11.57;10.37;;;3.70;92.80;;;2.20;95.13;99206.91;5086375;28;20546;-74
2021/12/19 08:21:43;;;;;;;11.80;9.83;;;3.70;92.90;;;2.26;94.51;99197.50;5086627;28;20517;-73
2021/12/19 08:24:12;;;;;;;13.27;10.57;;;3.70;92.50;;;2.16;94.53;99188.63;5099075;28;20467;-74
2021/12/19 08:26:41;;;;;;;13.03;10.53;;;3.70;92.50;;;2.10;94.41;99164.16;5102473;28;20457;-73
2021/12/19 08:29:11;;;;;;;12.33;10.13;;;3.70;92.60;;;2.23;94.51;99181.75;5105228;28;20461;-73
2021/12/19 08:31:39;;;;;;;13.60;11.37;;;3.80;92.10;;;2.17;94.63;99159.13;5090584;28;20467;-74
2021/12/19 08:34:06;;;;;;;12.73;11.23;;;3.80;92.80;;;2.29;94.18;99162.56;5090679;28;20452;-74
2021/12/19 08:36:33;;;;;;;12.20;10.80;;;3.80;92.00;;;2.39;94.04;99163.44;5085768;28;20869;-74
2021/12/19 08:39:00;;;;;;;14.30;11.10;;;3.80;92.10;;;2.51;93.26;99152.69;5083754;28;20482;-73
2021/12/19 08:41:27;;;;;;;12.93;10.47;;;4.00;91.90;;;2.55;92.86;99162.09;5086653;28;20504;-73
2021/12/19 08:43:55;;;;;;;12.97;10.47;;;4.00;91.40;;;2.49;92.44;99163.47;5085657;28;20456;-82
2021/12/19 08:46:23;;;;;;;13.60;10.90;;;4.00;91.00;;;2.41;93.09;99155.31;5089659;28;21009;-72
2021/12/19 08:48:51;;;;;;;12.47;10.70;;;3.90;91.20;;;2.51;93.59;99166.00;5082677;28;20483;-72
2021/12/19 08:51:19;;;;;;;15.10;10.93;;;4.00;91.60;;;2.39;93.57;99159.94;5092159;28;20880;-73
2021/12/19 08:53:47;;;;;;;15.57;11.70;;;3.90;91.20;;;2.38;94.22;99167.09;5085301;28;20540;-73
2021/12/19 08:56:14;;;;;;;13.17;11.70;;;3.80;91.90;;;2.34;93.99;99148.81;5097921;28;20529;-73
2021/12/19 08:58:41;;;;;;;15.30;13.23;;;3.90;91.80;;;2.53;93.46;99156.91;5090340;28;20441;-75
2021/12/19 09:01:08;;;;;;;13.97;10.70;;;4.00;92.10;;;2.33;93.05;99144.47;5090744;28;20543;-73
2021/12/19 09:03:36;;;;;;;15.43;12.53;;;3.90;91.40;;;2.43;94.32;99164.03;5094461;28;21189;-74
2021/12/19 09:06:04;;;;;;;15.10;11.93;;;3.90;92.10;;;2.51;93.52;99161.53;5086782;28;21069;-76
2021/12/19 09:08:32;;;;;;;16.07;12.73;;;4.00;91.90;;;2.45;94.34;99158.56;5086739;28;20456;-74
2021/12/19 09:10:59;;;;;;;15.17;11.50;;;4.00;91.90;;;2.48;93.99;99153.78;5090196;28;20549;-73
2021/12/19 09:13:26;;;;;;;17.07;13.00;;;4.00;92.20;;;2.53;94.00;99164.06;5089040;28;20533;-74
2021/12/19 09:15:54;;;;;;;16.57;13.60;;;4.00;92.30;;;2.30;94.41;99153.59;5083539;28;20525;-73
2021/12/19 09:18:22;;;;;;;15.80;12.40;;;3.90;92.00;;;2.28;94.04;99128.03;5100624;28;20847;-74
2021/12/19 09:20:53;;;;;;;18.30;13.43;;;3.80;92.30;;;2.36;94.23;99141.56;5086808;28;20513;-74
2021/12/19 09:23:20;;;;;;;18.63;13.60;;;3.90;92.10;;;2.34;94.45;99138.16;5090794;28;20463;-71
2021/12/19 09:25:48;;;;;;;17.20;12.80;;;3.90;92.30;;;2.32;94.52;99132.97;5083378;28;20452;-71
2021/12/19 09:28:15;;;;;;;19.07;12.10;;;3.90;92.50;;;2.37;94.47;99127.22;5099954;28;20532;-70
2021/12/19 09:30:45;;;;;;;17.93;13.47;;;3.90;92.60;;;2.50;93.81;99138.50;5092267;28;20460;-72
2021/12/19 09:33:13;;;;;;;21.03;14.33;;;4.00;91.80;;;2.43;93.61;99126.69;5094338;28;20564;-70
2021/12/19 09:35:40;;;;;;;17.50;13.77;;;3.90;91.50;;;2.48;93.94;99135.09;5086161;28;20464;-71
2021/12/19 09:38:09;;;;;;;21.40;15.03;;;3.90;92.10;;;2.36;94.03;99144.22;5086664;28;20563;-70
2021/12/19 09:40:38;;;;;;;22.93;16.20;;;3.90;92.20;;;2.59;93.96;99141.31;5080843;28;20467;-72
2021/12/19 09:43:10;;;;;;;22.07;16.27;;;4.00;92.50;;;2.53;93.75;99137.38;5104664;28;20816;-70
2021/12/19 09:45:38;;;;;;;19.37;14.87;;;4.00;92.00;;;2.40;93.01;99125.13;5092583;28;20475;-70
2021/12/19 09:48:05;;;;;;;17.90;13.93;;;3.90;91.20;;;2.41;93.74;99123.31;5092064;28;20469;-72
2021/12/19 09:50:33;;;;;;;19.80;15.40;;;3.90;91.60;;;2.33;93.59;99123.97;5087656;28;20582;-70
2021/12/19 09:53:00;;;;;;;20.90;13.73;;;3.80;91.40;;;2.46;93.75;99136.25;5084921;28;20478;-69
2021/12/19 09:55:29;;;;;;;18.43;14.40;;;3.90;91.70;;;2.39;93.11;99126.09;5086701;28;20578;-69
2021/12/19 09:57:57;;;;;;;16.83;12.17;;;3.90;91.40;;;2.44;94.21;99117.69;5082822;28;20560;-69
2021/12/19 10:00:24;;;;;;;17.23;12.87;;;3.90;93.00;;;2.39;93.30;99106.59;5082245;28;20490;-69
2021/12/19 10:02:51;;;;;;;19.00;15.50;;;3.90;91.50;;;2.37;93.35;99096.06;5085270;28;20980;-70
2021/12/19 10:05:22;;;;;;;20.73;14.83;;;3.90;91.20;;;2.39;94.05;99098.59;5082091;28;20552;-71
2021/12/19 10:07:52;;;;;;;19.87;16.07;;;3.90;91.80;;;2.75;94.39;99087.44;5085036;28;20991;-69
2021/12/19 10:10:27;;;;;;;21.67;16.77;;;4.10;93.90;;;2.62;92.95;99077.84;5099571;28;20892;-71
2021/12/19 10:12:58;;;;;;;21.27;15.47;;;4.20;91.50;;;3.11;93.40;99083.22;5087387;28;20597;-71
2021/12/19 10:15:33;;;;;;;25.53;16.57;;;4.40;92.40;;;3.26;91.23;99074.75;5088216;28;20447;-77
2021/12/19 10:18:06;;;;;;;22.57;16.70;;;4.60;90.60;;;3.16;90.92;99084.63;5083981;28;20460;-69
2021/12/19 10:20:49;;;;;;;17.53;14.43;;;4.60;89.20;;;2.87;91.74;99077.47;5094008;28;20451;-72
2021/12/19 10:23:19;;;;;;;21.67;16.97;;;4.40;89.20;;;2.80;92.55;99064.66;5094251;28;20499;-75
2021/12/19 10:25:57;;;;;;;16.50;12.73;;;4.40;90.80;;;2.50;91.19;99053.13;5097051;28;20548;-73
2021/12/19 10:28:27;;;;;;;20.30;16.07;;;4.20;89.30;;;2.59;92.21;99074.63;5108336;28;20456;-74
2021/12/19 10:30:56;;;;;;;19.97;14.13;;;4.10;90.50;;;2.53;92.90;99068.84;5098623;28;20452;-73
2021/12/19 10:33:28;;;;;;;19.30;15.03;;;4.00;90.90;;;2.64;92.45;99069.69;5097502;28;20559;-76
2021/12/19 10:36:00;;;;;;;19.73;13.93;;;4.10;91.00;;;2.62;92.16;99063.66;5100054;28;20448;-72
2021/12/19 10:38:30;;;;;;;17.70;12.83;;;4.10;91.00;;;2.57;92.47;99041.91;5099319;28;20506;-73
2021/12/19 10:41:03;;;;;;;17.83;13.63;;;4.10;90.40;;;2.54;92.37;99051.88;5101011;28;20487;-74
2021/12/19 10:43:56;;;;;;;20.80;15.80;;;4.00;90.70;;;2.65;92.98;99039.34;5103788;28;20452;-73
2021/12/19 10:46:29;;;;;;;15.40;11.70;;;4.10;91.10;;;2.64;92.38;99046.53;5093756;28;20449;-73
2021/12/19 10:48:56;;;;;;;16.63;13.30;;;4.10;90.30;;;2.48;92.59;99028.38;5096959;28;20522;-73
2021/12/19 10:51:24;;;;;;;20.43;14.10;;;4.10;91.00;;;2.64;92.21;99021.66;5097794;28;20463;-75
2021/12/19 10:53:55;;;;;;;17.90;14.30;;;4.10;90.50;;;2.58;91.80;99027.56;5070965;28;20506;-74
2021/12/19 10:56:25;;;;;;;15.77;12.37;;;4.10;90.30;;;2.48;92.48;99028.38;5098777;28;20460;-76
2021/12/19 10:58:57;;;;;;;15.30;11.63;;;4.10;90.10;;;2.20;92.69;98982.91;5104669;28;20466;-75
2021/12/19 11:01:29;;;;;;;18.70;14.77;;;4.00;90.80;;;2.44;92.89;99002.16;5099593;28;20494;-74
2021/12/19 11:04:03;;;;;;;18.90;15.00;;;4.00;91.00;;;2.50;92.57;99010.44;5096651;28;20444;-74
2021/12/19 11:06:37;;;;;;;20.50;15.27;;;4.00;90.60;;;2.59;92.24;99013.25;5099165;28;20488;-74
2021/12/19 11:09:12;;;;;;;19.00;14.30;;;4.00;91.00;;;2.59;92.51;99007.91;5099182;28;20980;-76
2021/12/19 11:11:49;;;;;;;21.80;15.10;;;4.10;90.80;;;2.49;92.92;99000.72;5095318;28;20859;-74
2021/12/19 11:14:24;;;;;;;20.53;14.93;;;4.00;90.70;;;2.48;93.73;98996.38;5100844;28;20467;-73
2021/12/19 11:16:55;;;;;;;21.50;15.63;;;4.00;91.30;;;2.50;93.49;98991.78;5091977;28;20969;-73
2021/12/19 11:19:24;;;;;;;19.37;15.50;;;4.00;91.70;;;2.58;93.08;98998.22;5090764;28;20465;-74
2021/12/19 11:21:51;;;;;;;19.97;13.77;;;4.00;91.60;;;2.38;92.24;98980.38;5092441;28;20470;-73
2021/12/19 11:24:21;;;;;;;18.90;14.57;;;4.00;90.50;;;2.35;92.58;98969.13;5093687;28;20545;-76
2021/12/19 11:26:50;;;;;;;17.17;13.60;;;3.90;90.70;;;2.39;92.36;98975.88;5089081;28;20491;-75
2021/12/19 11:29:20;;;;;;;20.23;14.47;;;3.90;90.30;;;2.39;92.25;98962.56;5088802;28;20551;-75